Latest Weather Observations for Jacup

IDW60801

Issued at 6:03 pm WST Saturday 3 December 2022 (issued every 10 minutes, with the page automatically refreshed every 10 minutes)

About weather observations | Map of weather stations | Latest weather observations for WA | Other Formats
Station Details ID: 010905 Name: JACUP Lat: -33.89 Lon: 119.11 Height: 305.0 m
Data from the previous 72 hours. | See also: Recent months at Jacup
Date/Time
WST
Temp
°C
App
Temp
°C
Dew
Point
°C
Rel
Hum
%
Delta-T
°C
Wind Press
QNH
hPa
Press
MSL
hPa
Rain since
9am
mm
Dir  Spd
km/h
Gust
km/h
Spd
kts
Gust
kts
03/06:00pm 15.9 11.6 10.7 71 2.8 SE 24 32 13 17 1016.3 1015.4 0.0
03/05:30pm 16.4 12.0 10.5 68 3.2 SE 24 33 13 18 1016.1 1015.2 0.0
03/05:00pm 17.4 13.0 10.5 64 3.7 ESE 24 37 13 20 1015.4 1014.5 0.0
03/04:30pm 18.7 13.6 10.5 59 4.5 ESE 28 37 15 20 1014.7 1013.7 0.0
03/04:00pm 20.8 16.6 11.2 54 5.4 SE 24 35 13 19 1014.3 1013.3 0.0
03/03:30pm 20.9 16.2 10.7 52 5.7 ESE 26 35 14 19 1013.9 1013.0 0.0
03/03:00pm 21.9 17.2 10.7 49 6.2 ESE 26 37 14 20 1013.7 1012.8 0.0
03/02:30pm 22.5 18.2 10.6 47 6.6 ESE 24 37 13 20 1013.4 1012.5 0.0
03/02:00pm 22.9 19.1 11.0 47 6.7 SE 22 35 12 19 1013.7 1012.8 0.0
03/01:30pm 23.0 19.7 10.8 46 6.8 SE 19 30 10 16 1013.9 1013.0 0.0
03/01:00pm 23.1 19.9 11.2 47 6.7 ESE 19 33 10 18 1013.8 1012.9 0.0
03/12:30pm 22.8 18.9 10.9 47 6.7 SE 22 32 12 17 1013.5 1012.6 0.0
03/12:00pm 22.5 19.0 10.9 47 6.5 ESE 20 28 11 15 1013.8 1012.9 0.0
03/11:30am 22.3 19.4 11.1 49 6.3 SE 17 28 9 15 1014.2 1013.2 0.0
03/11:00am 20.6 17.2 10.4 52 5.6 SE 19 28 10 15 1014.1 1013.1 0.0
03/10:30am 21.1 18.4 11.7 55 5.3 SE 17 28 9 15 1014.5 1013.5 0.0
03/10:00am 18.9 16.4 11.2 61 4.3 SE 15 26 8 14 1014.6 1013.6 0.0
03/09:30am 18.4 15.6 11.2 63 4.0 SE 17 26 9 14 1014.7 1013.7 0.0
03/09:00am 18.2 15.1 11.7 66 3.6 ESE 19 26 10 14 1014.4 1013.4 0.0
03/08:30am 16.4 13.9 10.9 70 3.0 ESE 15 24 8 13 1014.8 1013.8 0.0
03/08:00am 16.1 13.0 10.4 69 3.1 ESE 17 24 9 13 1014.7 1013.7 0.0
03/07:30am 16.2 12.9 10.9 71 2.9 ESE 19 26 10 14 1014.3 1013.3 0.0
03/07:00am 15.0 13.4 12.9 87 1.2 SE 13 22 7 12 1014.3 1013.3 0.0
03/06:30am 14.1 12.9 12.8 92 0.7 SE 11 15 6 8 1013.9 1013.0 0.0
03/06:00am 13.0 11.5 11.9 93 0.6 SE 11 15 6 8 1013.7 1012.8 0.0
03/05:30am 11.8 10.7 10.7 93 0.6 SSE 7 11 4 6 1013.6 1012.7 0.0
03/05:00am 11.1 9.8 9.9 92 0.6 SSE 7 7 4 4 1013.4 1012.5 0.0
03/04:30am 11.7 10.5 10.4 92 0.7 SSE 7 9 4 5 1013.1 1012.2 0.0
03/04:00am 11.4 10.1 10.1 92 0.7 SSE 7 9 4 5 1012.8 1011.9 0.0
03/03:30am 10.3 10.1 8.9 91 0.7 CALM 0 0 0 0 1012.3 1011.3 0.0
03/03:00am 10.3 10.1 8.9 91 0.7 CALM 0 0 0 0 1012.1 1011.1 0.0
03/02:30am 10.9 10.8 9.5 91 0.7 CALM 0 0 0 0 1012.2 1011.2 0.0
03/02:00am 10.8 10.7 9.4 91 0.7 CALM 0 0 0 0 1012.3 1011.3 0.0
03/01:30am 11.1 11.1 9.7 91 0.7 CALM 0 6 0 3 1012.3 1011.3 0.0
03/01:00am 11.1 9.9 9.5 90 0.8 SSE 6 7 3 4 1012.4 1011.4 0.0
03/12:30am 11.5 10.2 9.9 90 0.8 SE 7 9 4 5 1012.4 1011.4 0.0
03/12:00am 12.6 11.2 11.0 90 0.9 SE 9 11 5 6 1012.6 1011.7 0.0
 
Date/Time
WST
Temp
°C
App
Temp
°C
Dew
Point
°C
Rel
Hum
%
Delta-T
°C
Wind Press
QNH
hPa
Press
MSL
hPa
Rain since
9am
mm
Dir  Spd
km/h
Gust
km/h
Spd
kts
Gust
kts
02/11:30pm 12.4 11.3 10.8 90 0.8 SE 7 13 4 7 1012.8 1011.9 0.0
02/11:00pm 12.1 10.5 10.3 89 0.9 SSE 9 11 5 6 1012.8 1011.9 0.0
02/10:30pm 12.3 10.4 10.4 88 1.0 SSE 11 13 6 7 1012.8 1011.9 0.0
02/10:00pm 12.9 11.1 11.0 88 1.0 SSE 11 15 6 8 1013.0 1012.1 0.0
02/09:30pm 12.8 10.9 10.5 86 1.2 SE 11 15 6 8 1012.9 1012.0 0.0
02/09:00pm 13.2 10.9 10.6 84 1.4 SE 13 17 7 9 1012.6 1011.7 0.0
02/08:30pm 13.6 10.9 10.4 81 1.7 SE 15 20 8 11 1012.3 1011.3 0.0
02/08:00pm 14.2 11.1 10.2 77 2.1 SE 17 24 9 13 1012.1 1011.1 0.0
02/07:30pm 14.8 11.1 10.2 74 2.4 SE 20 28 11 15 1011.9 1010.9 0.0
02/07:00pm 15.7 11.2 10.0 69 3.0 SE 24 30 13 16 1011.6 1010.6 0.0
02/06:30pm 16.6 12.5 10.0 65 3.5 SE 22 33 12 18 1011.1 1010.1 0.0
02/06:00pm 18.0 13.6 10.4 61 4.1 SE 24 35 13 19 1010.6 1009.6 0.0
02/05:30pm 19.2 14.5 10.7 58 4.7 SE 26 35 14 19 1010.0 1009.1 0.0
02/05:00pm 20.4 15.9 11.3 56 5.1 SE 26 37 14 20 1009.6 1008.6 0.0
02/04:30pm 21.3 17.2 11.3 53 5.6 SSE 24 35 13 19 1009.3 1008.3 0.0
02/04:00pm 22.2 17.7 11.3 50 6.2 SE 26 39 14 21 1009.0 1008.0 0.0
02/03:30pm 23.1 18.3 11.8 49 6.5 SE 28 46 15 25 1008.8 1007.8 0.0
02/03:00pm 24.7 20.5 12.3 46 7.2 ESE 26 41 14 22 1008.6 1007.6 0.0
02/02:30pm 24.6 21.0 11.9 45 7.3 ESE 22 32 12 17 1008.5 1007.5 0.0
02/02:00pm 25.4 21.9 12.3 44 7.6 SE 22 33 12 18 1008.3 1007.3 0.0
02/01:30pm 26.1 24.3 10.7 38 8.8 NE 11 19 6 10 1008.2 1007.2 0.0
02/01:00pm 27.4 26.1 11.4 37 9.3 S 9 19 5 10 1008.4 1007.4 0.0
02/12:30pm 25.0 23.6 10.8 41 8.0 E 9 13 5 7 1008.9 1007.9 0.0
02/12:00pm 24.7 22.5 10.9 42 7.8 S 13 22 7 12 1009.0 1008.0 0.0
02/11:30am 23.5 22.2 11.2 46 7.0 E 9 15 5 8 1009.1 1008.1 0.0
02/11:00am 23.2 21.4 10.9 46 6.9 SW 11 19 6 10 1009.3 1008.3 0.0
02/10:30am 22.5 20.8 11.3 49 6.3 SSE 11 20 6 11 1009.6 1008.6 0.0
02/10:00am 21.4 19.3 11.1 52 5.8 SSW 13 20 7 11 1009.7 1008.8 0.0
02/09:30am 20.2 18.3 10.6 54 5.3 S 11 20 6 11 1009.7 1008.8 0.0
02/09:00am 19.6 17.8 10.9 57 4.8 SSW 11 17 6 9 1009.9 1009.0 0.0
02/08:30am 18.3 16.8 10.4 60 4.3 SW 9 20 5 11 1010.2 1009.3 0.0
02/08:00am 17.8 15.2 10.7 63 3.9 S 15 24 8 13 1010.2 1009.3 0.0
02/07:30am 16.8 14.4 10.2 65 3.5 SSW 13 20 7 11 1010.1 1009.2 0.0
02/07:00am 15.7 12.9 10.0 69 3.0 SW 15 24 8 13 1010.2 1009.3 0.0
02/06:30am 14.5 12.1 9.9 74 2.4 S 13 20 7 11 1010.0 1009.1 0.0
02/06:00am 14.0 11.6 10.0 77 2.1 SSW 13 20 7 11 1009.7 1008.8 0.0
02/05:30am 13.9 12.3 10.3 79 1.9 S 9 15 5 8 1009.6 1008.6 0.0
02/05:00am 13.8 12.3 10.4 80 1.8 S 9 15 5 8 1009.4 1008.4 0.0
02/04:30am 13.9 12.1 10.7 81 1.7 SSE 11 15 6 8 1009.1 1008.1 0.0
02/04:00am 13.9 11.7 10.7 81 1.7 S 13 19 7 10 1008.7 1007.7 0.0
02/03:30am 13.9 11.7 10.7 81 1.7 S 13 20 7 11 1008.4 1007.4 0.0
02/03:00am 13.9 11.7 10.7 81 1.7 SSW 13 19 7 10 1008.4 1007.4 0.0
02/02:30am 13.9 12.1 10.7 81 1.7 S 11 19 6 10 1008.4 1007.4 0.0
02/02:00am 14.1 11.9 10.9 81 1.7 S 13 20 7 11 1008.4 1007.4 0.0
02/01:30am 14.0 11.4 10.8 81 1.7 S 15 20 8 11 1008.3 1007.3 0.0
02/01:00am 14.1 11.9 10.9 81 1.7 S 13 22 7 12 1008.6 1007.6 0.0
02/12:30am 14.2 11.3 11.0 81 1.7 SSW 17 22 9 12 1008.9 1007.9 0.0
02/12:00am 14.0 11.4 10.8 81 1.7 S 15 24 8 13 1009.1 1008.1 0.0
 
Date/Time
WST
Temp
°C
App
Temp
°C
Dew
Point
°C
Rel
Hum
%
Delta-T
°C
Wind Press
QNH
hPa
Press
MSL
hPa
Rain since
9am
mm
Dir  Spd
km/h
Gust
km/h
Spd
kts
Gust
kts
01/11:30pm 14.2 11.7 11.0 81 1.7 SSW 15 24 8 13 1009.4 1008.4 0.0
01/11:00pm 14.5 11.1 11.3 81 1.7 S 20 30 11 16 1009.7 1008.8 0.0
01/10:30pm 14.6 11.4 11.4 81 1.7 S 19 26 10 14 1009.8 1008.9 0.0
01/10:00pm 14.9 11.8 11.5 80 1.9 S 19 30 10 16 1009.8 1008.9 0.0
01/09:30pm 15.3 12.7 11.9 80 1.9 S 17 28 9 15 1009.7 1008.8 0.0
01/09:00pm 15.5 12.9 11.9 79 2.0 S 17 24 9 13 1009.7 1008.8 0.0
01/08:30pm 16.0 14.3 12.4 79 2.0 S 13 24 7 13 1009.4 1008.4 0.0
01/08:00pm 15.9 14.1 12.1 78 2.1 SSW 13 24 7 13 1009.1 1008.1 0.0
01/07:30pm 16.9 14.5 12.8 77 2.3 S 17 28 9 15 1008.7 1007.7 0.0
01/07:00pm 18.2 16.1 13.7 75 2.6 SSE 17 24 9 13 1008.5 1007.5 0.0
01/06:30pm 19.7 17.8 14.1 70 3.3 SSE 17 26 9 14 1007.9 1006.9 0.0
01/06:00pm 21.1 18.8 14.7 67 3.8 SSE 20 30 11 16 1007.3 1006.3 0.0
01/05:30pm 22.0 19.1 15.1 65 4.1 SSE 24 32 13 17 1006.8 1005.9 0.0
01/05:00pm 23.5 20.7 15.3 60 5.0 SSE 24 33 13 18 1006.4 1005.4 0.0
01/04:30pm 25.4 22.3 15.7 55 6.0 SE 26 35 14 19 1005.9 1004.9 0.0
01/04:00pm 28.1 24.9 14.3 42 8.4 SSE 24 39 13 21 1005.6 1004.6 0.0
01/03:30pm 31.6 29.9 12.4 31 11.5 WSW 13 28 7 15 1005.1 1004.1 0.0
01/03:00pm 32.4 28.9 7.3 21 14.0 SW 15 26 8 14 1005.1 1004.1 0.0
01/02:30pm 32.8 28.6 7.6 21 14.1 WSW 19 30 10 16 1005.2 1004.2 0.0
01/02:00pm 32.6 29.5 7.4 21 14.1 WSW 13 24 7 13 1005.3 1004.3 0.0
01/01:30pm 31.8 28.1 8.1 23 13.3 W 17 32 9 17 1005.5 1004.5 0.0
01/01:00pm 32.4 28.7 8.0 22 13.7 WNW 17 32 9 17 1005.5 1004.5 0.0
01/12:30pm 31.8 28.2 9.9 26 12.6 WSW 19 26 10 14 1005.7 1004.7 0.0
01/12:00pm 32.1 29.4 10.2 26 12.7 WNW 15 30 8 16 1005.9 1004.9 0.0
01/11:30am 30.8 28.2 10.7 29 11.7 W 15 30 8 16 1006.2 1005.2 0.0
01/11:00am 29.9 27.4 10.9 31 11.1 WNW 15 26 8 14 1006.5 1005.5 0.0
01/10:30am 28.9 26.9 11.5 34 10.2 W 13 26 7 14 1006.6 1005.6 0.0
01/10:00am 28.2 25.4 11.3 35 9.8 NW 17 26 9 14 1006.9 1006.0 0.0
01/09:30am 27.9 25.5 11.5 36 9.5 NW 15 24 8 13 1007.0 1006.1 0.0
01/09:00am 26.7 23.5 8.6 32 10.0 NW 15 24 8 13 1006.9 1006.0 0.2
01/08:30am 26.7 23.3 9.1 33 9.8 NW 17 24 9 13 1007.0 1006.1 0.2
01/08:00am 25.6 22.4 8.6 34 9.3 NNW 15 24 8 13 1007.2 1006.2 0.2
01/07:30am 23.4 20.2 8.3 38 8.1 N 15 26 8 14 1007.2 1006.4 0.2
01/07:00am 21.4 16.8 8.0 42 7.1 N 22 30 12 16 1007.0 1006.3 0.2
01/06:30am 20.0 16.4 8.4 47 6.1 NNE 17 22 9 12 1006.9 1006.2 0.2
01/06:00am 18.1 15.2 8.1 52 5.2 NE 13 15 7 8 1007.0 1006.3 0.2
01/05:30am 15.7 13.5 8.0 60 3.9 NNE 9 13 5 7 1007.3 1006.5 0.2
01/05:00am 12.6 9.9 7.5 71 2.5 NNE 11 13 6 7 1007.2 1006.4 0.2
01/04:30am 12.8 10.5 7.3 69 2.7 ENE 9 11 5 6 1006.9 1006.2 0.2
01/04:00am 13.4 11.5 7.4 67 3.0 E 7 11 4 6 1006.7 1006.0 0.2
01/03:30am 14.0 11.7 7.5 65 3.2 NNE 9 13 5 7 1006.4 1005.7 0.2
01/03:00am 14.9 11.5 7.7 62 3.6 N 15 17 8 9 1006.3 1005.6 0.2
01/02:30am 15.7 12.4 8.0 60 3.9 N 15 20 8 11 1006.4 1005.7 0.2
01/02:00am 14.7 12.5 7.7 63 3.5 NNW 9 13 5 7 1006.7 1006.0 0.2
01/01:30am 15.9 13.0 8.2 60 4.0 N 13 19 7 10 1006.7 1006.0 0.2
01/01:00am 16.6 12.6 8.3 58 4.3 NNE 19 24 10 13 1006.8 1006.1 0.2
01/12:30am 17.0 13.1 8.7 58 4.3 NNE 19 26 10 14 1007.0 1006.3 0.2
01/12:00am 17.3 13.3 9.2 59 4.3 NNE 20 26 11 14 1007.3 1006.5 0.2
 
Date/Time
WST
Temp
°C
App
Temp
°C
Dew
Point
°C
Rel
Hum
%
Delta-T
°C
Wind Press
QNH
hPa
Press
MSL
hPa
Rain since
9am
mm
Dir  Spd
km/h
Gust
km/h
Spd
kts
Gust
kts
30/11:30pm 17.9 13.6 9.3 57 4.6 NNE 22 28 12 15 1007.5 1006.7 0.2
30/11:00pm 17.5 13.3 9.7 60 4.2 N 22 30 12 16 1007.7 1006.9 0.2
30/10:30pm 18.1 13.6 10.0 59 4.4 NNE 24 30 13 16 1007.9 1007.1 0.2
30/10:00pm 18.9 15.4 10.2 57 4.7 NNE 19 26 10 14 1008.2 1007.4 0.2
30/09:30pm 19.2 15.5 10.2 56 4.9 NNE 20 28 11 15 1008.4 1007.6 0.2
30/09:00pm 19.8 16.5 9.7 52 5.5 NNE 17 22 9 12 1008.3 1007.5 0.2
30/08:30pm 20.1 16.2 9.4 50 5.8 NNE 20 26 11 14 1008.2 1007.4 0.2
30/08:00pm 21.4 17.5 9.3 46 6.6 NE 20 28 11 15 1008.2 1007.4 0.2
30/07:30pm 22.2 17.9 9.4 44 7.0 NE 22 30 12 16 1008.1 1007.3 0.2
30/07:00pm 23.3 17.8 9.3 41 7.7 NE 28 35 15 19 1008.0 1007.2 0.2
30/06:30pm 24.2 19.2 9.4 39 8.2 NE 26 43 14 23 1008.0 1007.2 0.2

Other formats

Comma delimited format used in spreadsheet applications
http://www.bom.gov.au/fwo/IDW60801/IDW60801.95636.axf

JavaScript Object Notation format (JSON) in row-major order
http://www.bom.gov.au/fwo/IDW60801/IDW60801.95636.json

Data quality

Most of these data are generated automatically and are frequently updated. Quality checks on data are not normally performed. It is possible for incorrect values to appear. Refer to information at About Latest Weather Observations and please check the disclaimer before using these data.